sensor_id;sensor_type;location;lat;lon;timestamp;P1;durP1;ratioP1;P2;durP2;ratioP2
44270;SDS011;29963;44.594;11.368;2022-11-20T00:00:36;51.95;;;34.90;;
44270;SDS011;29963;44.594;11.368;2022-11-20T00:03:02;55.33;;;36.25;;
44270;SDS011;29963;44.594;11.368;2022-11-20T00:05:27;55.92;;;36.63;;
44270;SDS011;29963;44.594;11.368;2022-11-20T00:07:53;54.90;;;37.58;;
44270;SDS011;29963;44.594;11.368;2022-11-20T00:10:19;46.70;;;33.63;;
44270;SDS011;29963;44.594;11.368;2022-11-20T00:12:44;52.35;;;34.60;;
44270;SDS011;29963;44.594;11.368;2022-11-20T00:15:10;49.95;;;32.78;;
44270;SDS011;29963;44.594;11.368;2022-11-20T00:17:35;51.22;;;33.00;;
44270;SDS011;29963;44.594;11.368;2022-11-20T00:20:01;53.58;;;35.40;;
44270;SDS011;29963;44.594;11.368;2022-11-20T00:22:27;52.90;;;33.78;;
44270;SDS011;29963;44.594;11.368;2022-11-20T00:24:52;47.33;;;31.70;;
44270;SDS011;29963;44.594;11.368;2022-11-20T00:27:18;47.55;;;33.75;;
44270;SDS011;29963;44.594;11.368;2022-11-20T00:29:44;41.97;;;32.25;;
44270;SDS011;29963;44.594;11.368;2022-11-20T00:32:09;52.40;;;34.20;;
44270;SDS011;29963;44.594;11.368;2022-11-20T00:34:35;43.95;;;31.38;;
44270;SDS011;29963;44.594;11.368;2022-11-20T00:37:00;47.65;;;31.65;;
44270;SDS011;29963;44.594;11.368;2022-11-20T00:39:26;48.25;;;34.13;;
44270;SDS011;29963;44.594;11.368;2022-11-20T00:41:52;51.17;;;31.95;;
44270;SDS011;29963;44.594;11.368;2022-11-20T00:44:17;48.03;;;32.58;;
44270;SDS011;29963;44.594;11.368;2022-11-20T00:46:43;50.05;;;34.55;;
44270;SDS011;29963;44.594;11.368;2022-11-20T00:49:08;46.10;;;33.10;;
44270;SDS011;29963;44.594;11.368;2022-11-20T00:51:34;47.63;;;34.80;;
44270;SDS011;29963;44.594;11.368;2022-11-20T00:53:59;52.95;;;34.10;;
44270;SDS011;29963;44.594;11.368;2022-11-20T00:56:27;42.25;;;32.55;;
44270;SDS011;29963;44.594;11.368;2022-11-20T00:58:52;58.03;;;34.45;;
44270;SDS011;29963;44.594;11.368;2022-11-20T01:01:19;49.63;;;31.40;;
44270;SDS011;29963;44.594;11.368;2022-11-20T01:03:49;48.20;;;31.27;;
44270;SDS011;29963;44.594;11.368;2022-11-20T01:06:23;48.03;;;31.27;;
44270;SDS011;29963;44.594;11.368;2022-11-20T01:08:51;59.03;;;37.40;;
44270;SDS011;29963;44.594;11.368;2022-11-20T01:11:20;48.78;;;31.02;;
44270;SDS011;29963;44.594;11.368;2022-11-20T01:13:48;45.85;;;32.40;;
44270;SDS011;29963;44.594;11.368;2022-11-20T01:16:16;53.00;;;32.72;;
44270;SDS011;29963;44.594;11.368;2022-11-20T01:18:46;45.30;;;32.58;;
44270;SDS011;29963;44.594;11.368;2022-11-20T01:21:20;46.53;;;33.00;;
44270;SDS011;29963;44.594;11.368;2022-11-20T01:23:48;41.30;;;30.00;;
44270;SDS011;29963;44.594;11.368;2022-11-20T01:26:15;43.25;;;30.58;;
44270;SDS011;29963;44.594;11.368;2022-11-20T01:28:43;37.80;;;29.90;;
44270;SDS011;29963;44.594;11.368;2022-11-20T01:31:19;43.22;;;30.13;;
44270;SDS011;29963;44.594;11.368;2022-11-20T01:33:47;42.85;;;29.30;;
44270;SDS011;29963;44.594;11.368;2022-11-20T01:36:14;43.10;;;30.23;;
44270;SDS011;29963;44.594;11.368;2022-11-20T01:38:41;37.92;;;29.30;;
44270;SDS011;29963;44.594;11.368;2022-11-20T01:41:08;37.85;;;29.58;;
44270;SDS011;29963;44.594;11.368;2022-11-20T01:43:34;40.33;;;30.55;;
44270;SDS011;29963;44.594;11.368;2022-11-20T01:51:50;43.22;;;29.02;;
44270;SDS011;29963;44.594;11.368;2022-11-20T01:54:22;41.72;;;27.80;;
44270;SDS011;29963;44.594;11.368;2022-11-20T01:56:56;41.13;;;27.88;;
44270;SDS011;29963;44.594;11.368;2022-11-20T01:59:24;45.20;;;27.70;;
44270;SDS011;29963;44.594;11.368;2022-11-20T02:01:53;35.03;;;26.77;;
44270;SDS011;29963;44.594;11.368;2022-11-20T02:04:19;37.45;;;25.83;;
44270;SDS011;29963;44.594;11.368;2022-11-20T02:07:06;42.22;;;29.58;;
44270;SDS011;29963;44.594;11.368;2022-11-20T02:09:32;31.30;;;24.40;;
44270;SDS011;29963;44.594;11.368;2022-11-20T02:11:57;37.42;;;26.85;;
44270;SDS011;29963;44.594;11.368;2022-11-20T02:14:24;36.28;;;26.30;;
44270;SDS011;29963;44.594;11.368;2022-11-20T02:16:50;36.17;;;27.02;;
44270;SDS011;29963;44.594;11.368;2022-11-20T02:22:02;39.20;;;27.08;;
44270;SDS011;29963;44.594;11.368;2022-11-20T02:24:35;39.03;;;27.65;;
44270;SDS011;29963;44.594;11.368;2022-11-20T02:27:03;33.63;;;25.75;;
44270;SDS011;29963;44.594;11.368;2022-11-20T02:32:23;40.75;;;29.23;;
44270;SDS011;29963;44.594;11.368;2022-11-20T02:34:52;37.20;;;26.92;;
44270;SDS011;29963;44.594;11.368;2022-11-20T02:37:18;47.90;;;29.90;;
44270;SDS011;29963;44.594;11.368;2022-11-20T02:39:45;39.78;;;27.73;;
44270;SDS011;29963;44.594;11.368;2022-11-20T02:42:13;35.58;;;25.38;;
44270;SDS011;29963;44.594;11.368;2022-11-20T02:44:39;42.08;;;28.88;;
44270;SDS011;29963;44.594;11.368;2022-11-20T02:47:04;39.00;;;28.17;;
44270;SDS011;29963;44.594;11.368;2022-11-20T02:49:30;42.38;;;30.13;;
44270;SDS011;29963;44.594;11.368;2022-11-20T02:51:56;39.42;;;27.92;;
44270;SDS011;29963;44.594;11.368;2022-11-20T02:54:21;36.40;;;25.83;;
44270;SDS011;29963;44.594;11.368;2022-11-20T02:56:47;41.05;;;29.92;;
44270;SDS011;29963;44.594;11.368;2022-11-20T02:59:13;37.25;;;26.92;;
44270;SDS011;29963;44.594;11.368;2022-11-20T03:01:38;39.78;;;26.48;;
44270;SDS011;29963;44.594;11.368;2022-11-20T03:04:04;47.10;;;32.38;;
44270;SDS011;29963;44.594;11.368;2022-11-20T03:06:30;40.33;;;28.02;;
44270;SDS011;29963;44.594;11.368;2022-11-20T03:08:55;49.88;;;27.17;;
44270;SDS011;29963;44.594;11.368;2022-11-20T03:11:21;40.00;;;27.15;;
44270;SDS011;29963;44.594;11.368;2022-11-20T03:13:46;38.30;;;27.65;;
44270;SDS011;29963;44.594;11.368;2022-11-20T03:16:13;36.10;;;26.45;;
44270;SDS011;29963;44.594;11.368;2022-11-20T03:18:41;41.38;;;27.92;;
44270;SDS011;29963;44.594;11.368;2022-11-20T03:21:08;50.30;;;28.92;;
44270;SDS011;29963;44.594;11.368;2022-11-20T03:23:35;42.25;;;27.98;;
44270;SDS011;29963;44.594;11.368;2022-11-20T03:28:41;42.75;;;30.80;;
44270;SDS011;29963;44.594;11.368;2022-11-20T03:31:12;39.58;;;27.55;;
44270;SDS011;29963;44.594;11.368;2022-11-20T03:33:39;40.53;;;29.17;;
44270;SDS011;29963;44.594;11.368;2022-11-20T03:36:07;51.15;;;29.77;;
44270;SDS011;29963;44.594;11.368;2022-11-20T03:38:35;44.10;;;31.20;;
44270;SDS011;29963;44.594;11.368;2022-11-20T03:41:02;47.75;;;30.70;;
44270;SDS011;29963;44.594;11.368;2022-11-20T03:43:29;40.15;;;30.02;;
44270;SDS011;29963;44.594;11.368;2022-11-20T03:45:55;45.03;;;29.95;;
44270;SDS011;29963;44.594;11.368;2022-11-20T03:48:21;49.38;;;30.27;;
44270;SDS011;29963;44.594;11.368;2022-11-20T03:50:47;46.53;;;33.05;;
44270;SDS011;29963;44.594;11.368;2022-11-20T03:53:16;45.17;;;30.50;;
44270;SDS011;29963;44.594;11.368;2022-11-20T03:55:42;46.78;;;31.73;;
44270;SDS011;29963;44.594;11.368;2022-11-20T03:58:08;52.78;;;34.00;;
44270;SDS011;29963;44.594;11.368;2022-11-20T04:00:34;44.30;;;30.50;;
44270;SDS011;29963;44.594;11.368;2022-11-20T04:03:00;46.33;;;31.67;;
44270;SDS011;29963;44.594;11.368;2022-11-20T04:05:26;57.92;;;36.60;;
44270;SDS011;29963;44.594;11.368;2022-11-20T04:07:52;43.85;;;30.63;;
44270;SDS011;29963;44.594;11.368;2022-11-20T04:10:18;51.60;;;32.70;;
44270;SDS011;29963;44.594;11.368;2022-11-20T04:12:43;55.35;;;34.78;;
44270;SDS011;29963;44.594;11.368;2022-11-20T04:15:09;49.60;;;33.20;;
44270;SDS011;29963;44.594;11.368;2022-11-20T04:17:35;46.80;;;32.22;;
44270;SDS011;29963;44.594;11.368;2022-11-20T04:20:00;47.10;;;32.00;;
44270;SDS011;29963;44.594;11.368;2022-11-20T04:22:27;55.38;;;35.90;;
44270;SDS011;29963;44.594;11.368;2022-11-20T04:24:53;44.45;;;31.02;;
44270;SDS011;29963;44.594;11.368;2022-11-20T04:27:18;47.97;;;31.38;;
44270;SDS011;29963;44.594;11.368;2022-11-20T04:29:44;46.67;;;31.05;;
44270;SDS011;29963;44.594;11.368;2022-11-20T04:32:09;46.30;;;31.55;;
44270;SDS011;29963;44.594;11.368;2022-11-20T04:34:35;50.15;;;31.00;;
44270;SDS011;29963;44.594;11.368;2022-11-20T04:37:01;50.25;;;33.00;;
44270;SDS011;29963;44.594;11.368;2022-11-20T04:39:26;45.50;;;32.03;;
44270;SDS011;29963;44.594;11.368;2022-11-20T04:41:52;51.53;;;34.53;;
44270;SDS011;29963;44.594;11.368;2022-11-20T04:44:37;49.38;;;32.80;;
44270;SDS011;29963;44.594;11.368;2022-11-20T04:47:03;49.83;;;34.55;;
44270;SDS011;29963;44.594;11.368;2022-11-20T04:49:29;51.53;;;32.40;;
44270;SDS011;29963;44.594;11.368;2022-11-20T04:51:56;46.65;;;33.42;;
44270;SDS011;29963;44.594;11.368;2022-11-20T04:54:22;45.25;;;31.83;;
44270;SDS011;29963;44.594;11.368;2022-11-20T04:56:48;44.92;;;32.13;;
44270;SDS011;29963;44.594;11.368;2022-11-20T04:59:14;54.53;;;34.13;;
44270;SDS011;29963;44.594;11.368;2022-11-20T05:01:40;58.53;;;35.92;;
44270;SDS011;29963;44.594;11.368;2022-11-20T05:04:06;53.55;;;33.17;;
44270;SDS011;29963;44.594;11.368;2022-11-20T05:06:32;53.30;;;35.10;;
44270;SDS011;29963;44.594;11.368;2022-11-20T05:08:58;52.95;;;34.85;;
44270;SDS011;29963;44.594;11.368;2022-11-20T05:11:23;50.75;;;33.75;;
44270;SDS011;29963;44.594;11.368;2022-11-20T05:13:50;48.17;;;32.50;;
44270;SDS011;29963;44.594;11.368;2022-11-20T05:16:17;55.50;;;34.60;;
44270;SDS011;29963;44.594;11.368;2022-11-20T05:18:44;57.40;;;34.30;;
44270;SDS011;29963;44.594;11.368;2022-11-20T05:21:10;63.30;;;38.58;;
44270;SDS011;29963;44.594;11.368;2022-11-20T05:23:37;57.67;;;32.55;;
44270;SDS011;29963;44.594;11.368;2022-11-20T05:26:03;60.88;;;40.67;;
44270;SDS011;29963;44.594;11.368;2022-11-20T05:28:30;60.35;;;36.65;;
44270;SDS011;29963;44.594;11.368;2022-11-20T05:31:03;66.88;;;41.58;;
44270;SDS011;29963;44.594;11.368;2022-11-20T05:33:30;55.88;;;35.83;;
44270;SDS011;29963;44.594;11.368;2022-11-20T05:35:59;51.03;;;36.28;;
44270;SDS011;29963;44.594;11.368;2022-11-20T05:38:25;61.63;;;35.78;;
44270;SDS011;29963;44.594;11.368;2022-11-20T05:40:51;51.78;;;33.90;;
44270;SDS011;29963;44.594;11.368;2022-11-20T05:43:16;55.92;;;35.90;;
44270;SDS011;29963;44.594;11.368;2022-11-20T05:45:42;59.13;;;39.42;;
44270;SDS011;29963;44.594;11.368;2022-11-20T05:48:07;51.95;;;33.63;;
44270;SDS011;29963;44.594;11.368;2022-11-20T05:50:33;46.90;;;32.10;;
44270;SDS011;29963;44.594;11.368;2022-11-20T05:52:59;48.75;;;34.35;;
44270;SDS011;29963;44.594;11.368;2022-11-20T05:55:25;51.70;;;33.33;;
44270;SDS011;29963;44.594;11.368;2022-11-20T05:57:54;61.55;;;39.40;;
44270;SDS011;29963;44.594;11.368;2022-11-20T06:00:20;61.17;;;37.72;;
44270;SDS011;29963;44.594;11.368;2022-11-20T06:02:45;66.63;;;40.95;;
44270;SDS011;29963;44.594;11.368;2022-11-20T06:05:11;60.83;;;36.75;;
44270;SDS011;29963;44.594;11.368;2022-11-20T06:07:37;61.03;;;37.28;;
44270;SDS011;29963;44.594;11.368;2022-11-20T06:10:02;62.28;;;37.25;;
44270;SDS011;29963;44.594;11.368;2022-11-20T06:12:30;72.65;;;44.40;;
44270;SDS011;29963;44.594;11.368;2022-11-20T06:14:56;59.45;;;38.58;;
44270;SDS011;29963;44.594;11.368;2022-11-20T06:17:22;56.08;;;37.53;;
44270;SDS011;29963;44.594;11.368;2022-11-20T06:19:48;69.30;;;43.20;;
44270;SDS011;29963;44.594;11.368;2022-11-20T06:22:13;68.47;;;41.22;;
44270;SDS011;29963;44.594;11.368;2022-11-20T06:24:39;60.83;;;37.83;;
44270;SDS011;29963;44.594;11.368;2022-11-20T06:27:04;64.53;;;39.13;;
44270;SDS011;29963;44.594;11.368;2022-11-20T06:29:30;63.33;;;39.33;;
44270;SDS011;29963;44.594;11.368;2022-11-20T06:31:55;62.92;;;37.65;;
44270;SDS011;29963;44.594;11.368;2022-11-20T06:34:21;59.80;;;38.90;;
44270;SDS011;29963;44.594;11.368;2022-11-20T06:36:47;58.08;;;38.03;;
44270;SDS011;29963;44.594;11.368;2022-11-20T06:39:12;55.30;;;37.75;;
44270;SDS011;29963;44.594;11.368;2022-11-20T06:41:38;60.80;;;40.58;;
44270;SDS011;29963;44.594;11.368;2022-11-20T06:44:04;55.88;;;40.03;;
44270;SDS011;29963;44.594;11.368;2022-11-20T06:46:30;56.72;;;37.38;;
44270;SDS011;29963;44.594;11.368;2022-11-20T06:48:56;57.90;;;37.97;;
44270;SDS011;29963;44.594;11.368;2022-11-20T06:51:23;67.25;;;42.20;;
44270;SDS011;29963;44.594;11.368;2022-11-20T06:53:48;59.70;;;37.83;;
44270;SDS011;29963;44.594;11.368;2022-11-20T06:56:14;57.58;;;35.55;;
44270;SDS011;29963;44.594;11.368;2022-11-20T06:58:40;73.60;;;42.08;;
44270;SDS011;29963;44.594;11.368;2022-11-20T07:01:09;59.05;;;37.90;;
44270;SDS011;29963;44.594;11.368;2022-11-20T07:03:36;57.20;;;38.85;;
44270;SDS011;29963;44.594;11.368;2022-11-20T07:06:02;67.05;;;40.17;;
44270;SDS011;29963;44.594;11.368;2022-11-20T07:08:29;64.75;;;39.63;;
44270;SDS011;29963;44.594;11.368;2022-11-20T07:10:58;64.22;;;42.22;;
44270;SDS011;29963;44.594;11.368;2022-11-20T07:13:26;56.72;;;39.67;;
44270;SDS011;29963;44.594;11.368;2022-11-20T07:15:54;54.22;;;39.08;;
44270;SDS011;29963;44.594;11.368;2022-11-20T07:18:24;64.93;;;42.28;;
44270;SDS011;29963;44.594;11.368;2022-11-20T07:20:49;58.05;;;41.03;;
44270;SDS011;29963;44.594;11.368;2022-11-20T07:23:15;68.43;;;42.35;;
44270;SDS011;29963;44.594;11.368;2022-11-20T07:25:40;63.30;;;42.08;;
44270;SDS011;29963;44.594;11.368;2022-11-20T07:28:06;71.72;;;44.35;;
44270;SDS011;29963;44.594;11.368;2022-11-20T07:30:32;72.10;;;44.47;;
44270;SDS011;29963;44.594;11.368;2022-11-20T07:32:57;63.80;;;42.33;;
44270;SDS011;29963;44.594;11.368;2022-11-20T07:35:24;71.20;;;46.70;;
44270;SDS011;29963;44.594;11.368;2022-11-20T07:37:50;61.13;;;41.95;;
44270;SDS011;29963;44.594;11.368;2022-11-20T07:40:16;63.50;;;39.42;;
44270;SDS011;29963;44.594;11.368;2022-11-20T07:42:51;58.72;;;41.92;;
44270;SDS011;29963;44.594;11.368;2022-11-20T07:45:19;56.63;;;40.55;;
44270;SDS011;29963;44.594;11.368;2022-11-20T07:47:45;61.45;;;42.20;;
44270;SDS011;29963;44.594;11.368;2022-11-20T07:50:12;61.55;;;44.55;;
44270;SDS011;29963;44.594;11.368;2022-11-20T07:52:38;59.72;;;40.58;;
44270;SDS011;29963;44.594;11.368;2022-11-20T07:55:05;60.72;;;41.15;;
44270;SDS011;29963;44.594;11.368;2022-11-20T07:57:31;53.97;;;39.88;;
44270;SDS011;29963;44.594;11.368;2022-11-20T07:59:57;56.10;;;39.75;;
44270;SDS011;29963;44.594;11.368;2022-11-20T08:02:22;63.13;;;41.33;;
44270;SDS011;29963;44.594;11.368;2022-11-20T08:04:48;58.33;;;41.33;;
44270;SDS011;29963;44.594;11.368;2022-11-20T08:07:14;57.33;;;41.47;;
44270;SDS011;29963;44.594;11.368;2022-11-20T08:09:39;60.65;;;41.83;;
44270;SDS011;29963;44.594;11.368;2022-11-20T08:12:05;54.95;;;39.42;;
44270;SDS011;29963;44.594;11.368;2022-11-20T08:14:49;59.22;;;41.13;;
44270;SDS011;29963;44.594;11.368;2022-11-20T08:17:15;50.97;;;39.05;;
44270;SDS011;29963;44.594;11.368;2022-11-20T08:19:41;64.53;;;44.67;;
44270;SDS011;29963;44.594;11.368;2022-11-20T08:22:06;64.40;;;44.75;;
44270;SDS011;29963;44.594;11.368;2022-11-20T08:24:32;58.75;;;41.88;;
44270;SDS011;29963;44.594;11.368;2022-11-20T08:26:58;60.05;;;42.05;;
44270;SDS011;29963;44.594;11.368;2022-11-20T08:29:24;61.13;;;42.28;;
44270;SDS011;29963;44.594;11.368;2022-11-20T08:31:50;54.17;;;41.00;;
44270;SDS011;29963;44.594;11.368;2022-11-20T08:34:16;58.05;;;41.55;;
44270;SDS011;29963;44.594;11.368;2022-11-20T08:36:42;58.08;;;42.00;;
44270;SDS011;29963;44.594;11.368;2022-11-20T08:39:07;57.13;;;41.50;;
44270;SDS011;29963;44.594;11.368;2022-11-20T08:41:36;57.83;;;41.35;;
44270;SDS011;29963;44.594;11.368;2022-11-20T08:44:02;59.55;;;42.22;;
44270;SDS011;29963;44.594;11.368;2022-11-20T08:46:36;54.22;;;41.03;;
44270;SDS011;29963;44.594;11.368;2022-11-20T08:49:04;53.95;;;40.13;;
44270;SDS011;29963;44.594;11.368;2022-11-20T08:51:32;54.42;;;39.60;;
44270;SDS011;29963;44.594;11.368;2022-11-20T08:53:58;53.35;;;40.83;;
44270;SDS011;29963;44.594;11.368;2022-11-20T08:56:24;55.08;;;39.70;;
44270;SDS011;29963;44.594;11.368;2022-11-20T08:58:50;52.65;;;37.95;;
44270;SDS011;29963;44.594;11.368;2022-11-20T09:01:17;58.88;;;41.80;;
44270;SDS011;29963;44.594;11.368;2022-11-20T09:03:43;56.97;;;41.13;;
44270;SDS011;29963;44.594;11.368;2022-11-20T09:06:09;55.05;;;39.70;;
44270;SDS011;29963;44.594;11.368;2022-11-20T09:08:34;56.45;;;38.63;;
44270;SDS011;29963;44.594;11.368;2022-11-20T09:11:01;63.97;;;39.65;;
44270;SDS011;29963;44.594;11.368;2022-11-20T09:13:27;60.65;;;42.33;;
44270;SDS011;29963;44.594;11.368;2022-11-20T09:15:57;58.70;;;41.20;;
44270;SDS011;29963;44.594;11.368;2022-11-20T09:18:25;60.40;;;42.70;;
44270;SDS011;29963;44.594;11.368;2022-11-20T09:20:51;51.88;;;39.25;;
44270;SDS011;29963;44.594;11.368;2022-11-20T09:23:20;58.40;;;40.80;;
44270;SDS011;29963;44.594;11.368;2022-11-20T09:25:46;55.03;;;40.88;;
44270;SDS011;29963;44.594;11.368;2022-11-20T09:28:12;56.78;;;39.90;;
44270;SDS011;29963;44.594;11.368;2022-11-20T09:30:38;55.58;;;41.15;;
44270;SDS011;29963;44.594;11.368;2022-11-20T09:33:04;52.60;;;38.90;;
44270;SDS011;29963;44.594;11.368;2022-11-20T09:35:31;51.95;;;39.15;;
44270;SDS011;29963;44.594;11.368;2022-11-20T09:37:57;53.25;;;39.03;;
44270;SDS011;29963;44.594;11.368;2022-11-20T09:40:24;54.67;;;38.80;;
44270;SDS011;29963;44.594;11.368;2022-11-20T09:42:59;55.85;;;39.90;;
44270;SDS011;29963;44.594;11.368;2022-11-20T09:46:04;57.08;;;40.35;;
44270;SDS011;29963;44.594;11.368;2022-11-20T09:51:42;58.13;;;41.55;;
44270;SDS011;29963;44.594;11.368;2022-11-20T09:54:22;58.15;;;40.97;;
44270;SDS011;29963;44.594;11.368;2022-11-20T09:56:59;56.53;;;41.05;;
44270;SDS011;29963;44.594;11.368;2022-11-20T09:59:38;57.03;;;42.20;;
44270;SDS011;29963;44.594;11.368;2022-11-20T10:02:15;56.92;;;41.30;;
44270;SDS011;29963;44.594;11.368;2022-11-20T10:07:41;55.75;;;41.88;;
44270;SDS011;29963;44.594;11.368;2022-11-20T10:10:30;57.45;;;41.72;;
44270;SDS011;29963;44.594;11.368;2022-11-20T10:19:14;59.15;;;43.70;;
44270;SDS011;29963;44.594;11.368;2022-11-20T10:29:52;60.33;;;42.65;;
44270;SDS011;29963;44.594;11.368;2022-11-20T10:32:30;57.15;;;41.13;;
44270;SDS011;29963;44.594;11.368;2022-11-20T10:35:03;60.03;;;42.67;;
44270;SDS011;29963;44.594;11.368;2022-11-20T10:37:30;59.17;;;42.95;;
44270;SDS011;29963;44.594;11.368;2022-11-20T10:42:42;64.00;;;43.60;;
44270;SDS011;29963;44.594;11.368;2022-11-20T10:47:52;57.47;;;39.33;;
44270;SDS011;29963;44.594;11.368;2022-11-20T10:50:42;54.40;;;40.22;;
44270;SDS011;29963;44.594;11.368;2022-11-20T10:56:35;60.10;;;44.42;;
44270;SDS011;29963;44.594;11.368;2022-11-20T10:59:12;60.67;;;42.40;;
44270;SDS011;29963;44.594;11.368;2022-11-20T11:01:56;50.25;;;36.70;;
44270;SDS011;29963;44.594;11.368;2022-11-20T11:04:36;48.60;;;36.60;;
44270;SDS011;29963;44.594;11.368;2022-11-20T11:07:12;54.90;;;38.22;;
44270;SDS011;29963;44.594;11.368;2022-11-20T11:09:44;50.83;;;36.55;;
44270;SDS011;29963;44.594;11.368;2022-11-20T11:12:19;47.47;;;34.72;;
44270;SDS011;29963;44.594;11.368;2022-11-20T11:14:51;52.00;;;37.92;;
44270;SDS011;29963;44.594;11.368;2022-11-20T11:17:45;46.47;;;34.25;;
44270;SDS011;29963;44.594;11.368;2022-11-20T11:22:54;45.22;;;33.60;;
44270;SDS011;29963;44.594;11.368;2022-11-20T11:25:28;47.35;;;34.30;;
44270;SDS011;29963;44.594;11.368;2022-11-20T11:27:55;50.55;;;34.78;;
44270;SDS011;29963;44.594;11.368;2022-11-20T11:30:25;48.88;;;34.20;;
44270;SDS011;29963;44.594;11.368;2022-11-20T11:35:56;49.20;;;32.53;;
44270;SDS011;29963;44.594;11.368;2022-11-20T11:40:54;44.67;;;31.75;;
44270;SDS011;29963;44.594;11.368;2022-11-20T11:43:23;44.50;;;34.08;;
44270;SDS011;29963;44.594;11.368;2022-11-20T11:46:32;46.05;;;35.20;;
44270;SDS011;29963;44.594;11.368;2022-11-20T11:49:00;51.47;;;34.47;;
44270;SDS011;29963;44.594;11.368;2022-11-20T11:59:48;43.80;;;30.20;;
44270;SDS011;29963;44.594;11.368;2022-11-20T12:05:16;37.50;;;28.67;;
44270;SDS011;29963;44.594;11.368;2022-11-20T12:08:10;36.85;;;26.17;;
44270;SDS011;29963;44.594;11.368;2022-11-20T12:15:59;38.60;;;27.60;;
44270;SDS011;29963;44.594;11.368;2022-11-20T12:18:26;35.40;;;26.70;;
44270;SDS011;29963;44.594;11.368;2022-11-20T12:21:00;35.85;;;26.60;;
44270;SDS011;29963;44.594;11.368;2022-11-20T12:23:28;33.00;;;26.33;;
44270;SDS011;29963;44.594;11.368;2022-11-20T12:29:18;28.75;;;23.95;;
44270;SDS011;29963;44.594;11.368;2022-11-20T12:31:58;28.80;;;22.20;;
44270;SDS011;29963;44.594;11.368;2022-11-20T12:40:56;26.92;;;19.85;;
44270;SDS011;29963;44.594;11.368;2022-11-20T12:47:38;28.75;;;21.30;;
44270;SDS011;29963;44.594;11.368;2022-11-20T12:50:02;29.00;;;20.38;;
44270;SDS011;29963;44.594;11.368;2022-11-20T12:53:00;28.40;;;19.52;;
44270;SDS011;29963;44.594;11.368;2022-11-20T12:58:20;19.40;;;16.30;;
44270;SDS011;29963;44.594;11.368;2022-11-20T13:00:56;17.73;;;15.15;;
44270;SDS011;29963;44.594;11.368;2022-11-20T13:05:59;17.33;;;9.85;;
44270;SDS011;29963;44.594;11.368;2022-11-20T13:08:32;14.23;;;10.82;;
44270;SDS011;29963;44.594;11.368;2022-11-20T13:11:18;20.90;;;11.57;;
44270;SDS011;29963;44.594;11.368;2022-11-20T13:19:25;9.27;;;6.93;;
44270;SDS011;29963;44.594;11.368;2022-11-20T13:21:53;11.48;;;8.60;;
44270;SDS011;29963;44.594;11.368;2022-11-20T13:26:45;9.63;;;7.25;;
44270;SDS011;29963;44.594;11.368;2022-11-20T13:29:11;8.93;;;6.57;;
44270;SDS011;29963;44.594;11.368;2022-11-20T13:31:45;10.38;;;7.05;;
44270;SDS011;29963;44.594;11.368;2022-11-20T13:34:25;9.65;;;6.95;;
44270;SDS011;29963;44.594;11.368;2022-11-20T13:36:55;8.80;;;6.70;;
44270;SDS011;29963;44.594;11.368;2022-11-20T13:39:30;7.55;;;6.25;;
44270;SDS011;29963;44.594;11.368;2022-11-20T13:42:01;7.78;;;5.88;;
44270;SDS011;29963;44.594;11.368;2022-11-20T13:44:47;8.55;;;6.07;;
44270;SDS011;29963;44.594;11.368;2022-11-20T13:47:25;9.73;;;6.32;;
44270;SDS011;29963;44.594;11.368;2022-11-20T13:49:53;10.57;;;7.28;;
44270;SDS011;29963;44.594;11.368;2022-11-20T13:58:12;8.65;;;7.00;;
44270;SDS011;29963;44.594;11.368;2022-11-20T14:01:14;10.15;;;6.95;;
44270;SDS011;29963;44.594;11.368;2022-11-20T14:03:38;11.38;;;7.50;;
44270;SDS011;29963;44.594;11.368;2022-11-20T14:06:04;10.43;;;7.57;;
44270;SDS011;29963;44.594;11.368;2022-11-20T14:08:39;9.77;;;6.63;;
44270;SDS011;29963;44.594;11.368;2022-11-20T14:11:21;10.25;;;7.47;;
44270;SDS011;29963;44.594;11.368;2022-11-20T14:14:13;9.80;;;7.38;;
44270;SDS011;29963;44.594;11.368;2022-11-20T14:16:46;10.85;;;7.18;;
44270;SDS011;29963;44.594;11.368;2022-11-20T14:19:26;12.25;;;9.15;;
44270;SDS011;29963;44.594;11.368;2022-11-20T14:21:54;9.75;;;7.05;;
44270;SDS011;29963;44.594;11.368;2022-11-20T14:24:32;9.55;;;7.45;;
44270;SDS011;29963;44.594;11.368;2022-11-20T14:26:58;10.85;;;7.63;;
44270;SDS011;29963;44.594;11.368;2022-11-20T14:29:27;14.40;;;9.77;;
44270;SDS011;29963;44.594;11.368;2022-11-20T14:31:57;11.40;;;7.65;;
44270;SDS011;29963;44.594;11.368;2022-11-20T14:34:27;11.30;;;7.30;;
44270;SDS011;29963;44.594;11.368;2022-11-20T14:36:58;12.18;;;7.55;;
44270;SDS011;29963;44.594;11.368;2022-11-20T14:39:41;9.52;;;6.85;;
44270;SDS011;29963;44.594;11.368;2022-11-20T14:42:17;8.23;;;7.38;;
44270;SDS011;29963;44.594;11.368;2022-11-20T14:44:44;12.10;;;6.95;;
44270;SDS011;29963;44.594;11.368;2022-11-20T14:47:12;8.57;;;6.13;;
44270;SDS011;29963;44.594;11.368;2022-11-20T14:49:40;11.25;;;7.70;;
44270;SDS011;29963;44.594;11.368;2022-11-20T14:52:14;10.20;;;7.18;;
44270;SDS011;29963;44.594;11.368;2022-11-20T14:54:47;11.02;;;6.82;;
44270;SDS011;29963;44.594;11.368;2022-11-20T14:57:25;10.20;;;6.22;;
44270;SDS011;29963;44.594;11.368;2022-11-20T15:00:02;12.35;;;7.53;;
44270;SDS011;29963;44.594;11.368;2022-11-20T15:02:44;10.48;;;6.60;;
44270;SDS011;29963;44.594;11.368;2022-11-20T15:05:11;10.32;;;7.07;;
44270;SDS011;29963;44.594;11.368;2022-11-20T15:07:39;7.75;;;6.78;;
44270;SDS011;29963;44.594;11.368;2022-11-20T15:10:13;10.68;;;5.93;;
44270;SDS011;29963;44.594;11.368;2022-11-20T15:18:13;11.07;;;7.40;;
44270;SDS011;29963;44.594;11.368;2022-11-20T15:20:41;10.10;;;7.30;;
44270;SDS011;29963;44.594;11.368;2022-11-20T15:23:09;8.90;;;7.15;;
44270;SDS011;29963;44.594;11.368;2022-11-20T15:25:37;10.75;;;7.22;;
44270;SDS011;29963;44.594;11.368;2022-11-20T15:28:04;12.38;;;7.70;;
44270;SDS011;29963;44.594;11.368;2022-11-20T15:30:35;7.60;;;6.70;;
44270;SDS011;29963;44.594;11.368;2022-11-20T15:33:00;8.93;;;7.18;;
44270;SDS011;29963;44.594;11.368;2022-11-20T15:35:26;9.73;;;7.57;;
44270;SDS011;29963;44.594;11.368;2022-11-20T15:37:52;11.55;;;8.30;;
44270;SDS011;29963;44.594;11.368;2022-11-20T15:40:17;11.95;;;8.02;;
44270;SDS011;29963;44.594;11.368;2022-11-20T15:42:43;13.45;;;8.50;;
44270;SDS011;29963;44.594;11.368;2022-11-20T15:45:27;13.25;;;9.50;;
44270;SDS011;29963;44.594;11.368;2022-11-20T15:48:00;9.77;;;8.57;;
44270;SDS011;29963;44.594;11.368;2022-11-20T15:53:21;14.00;;;9.30;;
44270;SDS011;29963;44.594;11.368;2022-11-20T15:55:47;15.73;;;9.73;;
44270;SDS011;29963;44.594;11.368;2022-11-20T15:58:13;13.00;;;9.60;;
44270;SDS011;29963;44.594;11.368;2022-11-20T16:00:39;11.80;;;9.00;;
44270;SDS011;29963;44.594;11.368;2022-11-20T16:03:04;12.10;;;9.02;;
44270;SDS011;29963;44.594;11.368;2022-11-20T16:05:30;11.40;;;8.57;;
44270;SDS011;29963;44.594;11.368;2022-11-20T16:07:56;10.43;;;8.93;;
44270;SDS011;29963;44.594;11.368;2022-11-20T16:10:22;16.60;;;9.63;;